sensor_id;sensor_type;location;lat;lon;timestamp;pressure;altitude;pressure_sealevel;temperature;humidity
12178;BME280;6152;48.728;9.256;2023-11-19T00:00:22;97000.44;;;6.52;100.00
12178;BME280;6152;48.728;9.256;2023-11-19T00:02:49;97013.31;;;6.54;100.00
12178;BME280;6152;48.728;9.256;2023-11-19T00:05:15;97005.47;;;6.55;100.00
12178;BME280;6152;48.728;9.256;2023-11-19T00:07:41;96997.66;;;6.57;100.00
12178;BME280;6152;48.728;9.256;2023-11-19T00:10:12;97000.03;;;6.62;100.00
12178;BME280;6152;48.728;9.256;2023-11-19T00:12:43;96996.38;;;6.66;100.00
12178;BME280;6152;48.728;9.256;2023-11-19T00:15:10;96978.91;;;6.71;100.00
12178;BME280;6152;48.728;9.256;2023-11-19T00:17:44;96973.44;;;6.77;100.00
12178;BME280;6152;48.728;9.256;2023-11-19T00:20:20;96967.97;;;6.83;100.00
12178;BME280;6152;48.728;9.256;2023-11-19T00:22:49;96966.91;;;6.87;100.00
12178;BME280;6152;48.728;9.256;2023-11-19T00:25:19;96952.78;;;6.94;100.00
12178;BME280;6152;48.728;9.256;2023-11-19T00:27:47;96950.88;;;6.97;100.00
12178;BME280;6152;48.728;9.256;2023-11-19T00:30:14;96944.66;;;7.01;100.00
12178;BME280;6152;48.728;9.256;2023-11-19T00:32:41;96956.44;;;7.07;100.00
12178;BME280;6152;48.728;9.256;2023-11-19T00:35:08;96956.44;;;7.07;100.00
12178;BME280;6152;48.728;9.256;2023-11-19T00:37:36;96963.91;;;7.13;100.00
12178;BME280;6152;48.728;9.256;2023-11-19T00:40:02;96957.00;;;7.14;100.00
12178;BME280;6152;48.728;9.256;2023-11-19T00:42:31;96955.84;;;7.19;100.00
12178;BME280;6152;48.728;9.256;2023-11-19T00:44:57;96942.97;;;7.18;100.00
12178;BME280;6152;48.728;9.256;2023-11-19T00:47:23;96940.31;;;7.19;100.00
12178;BME280;6152;48.728;9.256;2023-11-19T00:49:50;96934.97;;;7.22;100.00
12178;BME280;6152;48.728;9.256;2023-11-19T00:52:17;96929.66;;;7.25;100.00
12178;BME280;6152;48.728;9.256;2023-11-19T00:54:43;96924.41;;;7.27;100.00
12178;BME280;6152;48.728;9.256;2023-11-19T00:57:09;96932.84;;;7.30;100.00
12178;BME280;6152;48.728;9.256;2023-11-19T00:59:35;96924.16;;;7.31;100.00
12178;BME280;6152;48.728;9.256;2023-11-19T01:02:02;96926.69;;;7.33;100.00
12178;BME280;6152;48.728;9.256;2023-11-19T01:04:35;96927.38;;;7.36;100.00
12178;BME280;6152;48.728;9.256;2023-11-19T01:07:03;96928.09;;;7.38;100.00
12178;BME280;6152;48.728;9.256;2023-11-19T01:09:33;96920.34;;;7.38;100.00
12178;BME280;6152;48.728;9.256;2023-11-19T01:12:03;96920.19;;;7.41;100.00
12178;BME280;6152;48.728;9.256;2023-11-19T01:14:30;96915.56;;;7.48;100.00
12178;BME280;6152;48.728;9.256;2023-11-19T01:16:56;96912.88;;;7.49;100.00
12178;BME280;6152;48.728;9.256;2023-11-19T01:19:23;96915.56;;;7.48;100.00
12178;BME280;6152;48.728;9.256;2023-11-19T01:21:50;96910.22;;;7.51;100.00
12178;BME280;6152;48.728;9.256;2023-11-19T01:24:17;96913.56;;;7.53;100.00
12178;BME280;6152;48.728;9.256;2023-11-19T01:26:44;96908.31;;;7.54;100.00
12178;BME280;6152;48.728;9.256;2023-11-19T01:29:14;96905.56;;;7.57;100.00
12178;BME280;6152;48.728;9.256;2023-11-19T01:31:42;96895.88;;;7.61;100.00
12178;BME280;6152;48.728;9.256;2023-11-19T01:34:08;96884.50;;;7.63;100.00
12178;BME280;6152;48.728;9.256;2023-11-19T01:36:35;96886.09;;;7.66;100.00
12178;BME280;6152;48.728;9.256;2023-11-19T01:39:01;96886.19;;;7.65;100.00
12178;BME280;6152;48.728;9.256;2023-11-19T01:41:27;96895.53;;;7.67;100.00
12178;BME280;6152;48.728;9.256;2023-11-19T01:43:53;96886.78;;;7.70;100.00
12178;BME280;6152;48.728;9.256;2023-11-19T01:46:20;96885.88;;;7.71;100.00
12178;BME280;6152;48.728;9.256;2023-11-19T01:48:46;96887.53;;;7.72;100.00
12178;BME280;6152;48.728;9.256;2023-11-19T01:51:13;96887.38;;;7.75;100.00
12178;BME280;6152;48.728;9.256;2023-11-19T01:53:43;96901.16;;;7.75;100.00
12178;BME280;6152;48.728;9.256;2023-11-19T01:56:11;96894.88;;;7.79;100.00
12178;BME280;6152;48.728;9.256;2023-11-19T01:58:38;96888.97;;;7.77;100.00
12178;BME280;6152;48.728;9.256;2023-11-19T02:01:06;96892.97;;;7.83;100.00
12178;BME280;6152;48.728;9.256;2023-11-19T02:03:33;96892.22;;;7.81;100.00
12178;BME280;6152;48.728;9.256;2023-11-19T02:06:00;96892.06;;;7.84;100.00
12178;BME280;6152;48.728;9.256;2023-11-19T02:08:26;96886.81;;;7.85;100.00
12178;BME280;6152;48.728;9.256;2023-11-19T02:10:53;96886.72;;;7.87;100.00
12178;BME280;6152;48.728;9.256;2023-11-19T02:13:23;96871.00;;;7.90;100.00
12178;BME280;6152;48.728;9.256;2023-11-19T02:15:49;96863.81;;;7.95;100.00
12178;BME280;6152;48.728;9.256;2023-11-19T02:18:20;96880.22;;;7.95;100.00
12178;BME280;6152;48.728;9.256;2023-11-19T02:20:48;96874.94;;;7.97;100.00
12178;BME280;6152;48.728;9.256;2023-11-19T02:23:15;96872.94;;;8.02;100.00
12178;BME280;6152;48.728;9.256;2023-11-19T02:25:45;96870.84;;;8.08;100.00
12178;BME280;6152;48.728;9.256;2023-11-19T02:28:13;96866.34;;;8.12;100.00
12178;BME280;6152;48.728;9.256;2023-11-19T02:30:40;96859.13;;;8.17;100.00
12178;BME280;6152;48.728;9.256;2023-11-19T02:33:06;96861.41;;;8.23;100.00
12178;BME280;6152;48.728;9.256;2023-11-19T02:35:33;96859.34;;;8.30;100.00
12178;BME280;6152;48.728;9.256;2023-11-19T02:38:00;96866.88;;;8.34;100.00
12178;BME280;6152;48.728;9.256;2023-11-19T02:40:35;96860.91;;;8.32;100.00
12178;BME280;6152;48.728;9.256;2023-11-19T02:43:01;96863.34;;;8.35;100.00
12178;BME280;6152;48.728;9.256;2023-11-19T02:45:28;96863.16;;;8.38;100.00
12178;BME280;6152;48.728;9.256;2023-11-19T02:47:57;96852.47;;;8.44;100.00
12178;BME280;6152;48.728;9.256;2023-11-19T02:50:23;96857.47;;;8.47;100.00
12178;BME280;6152;48.728;9.256;2023-11-19T02:52:54;96867.69;;;8.50;100.00
12178;BME280;6152;48.728;9.256;2023-11-19T02:55:22;96859.66;;;8.55;100.00
12178;BME280;6152;48.728;9.256;2023-11-19T02:57:50;96861.97;;;8.59;100.00
12178;BME280;6152;48.728;9.256;2023-11-19T03:00:17;96870.88;;;8.70;100.00
12178;BME280;6152;48.728;9.256;2023-11-19T03:02:44;96870.16;;;8.68;100.00
12178;BME280;6152;48.728;9.256;2023-11-19T03:05:15;96861.00;;;8.76;100.00
12178;BME280;6152;48.728;9.256;2023-11-19T03:07:43;96861.75;;;8.78;100.00
12178;BME280;6152;48.728;9.256;2023-11-19T03:10:10;96870.28;;;8.80;100.00
12178;BME280;6152;48.728;9.256;2023-11-19T03:12:44;96860.56;;;8.84;100.00
12178;BME280;6152;48.728;9.256;2023-11-19T03:15:11;96862.13;;;8.86;100.00
12178;BME280;6152;48.728;9.256;2023-11-19T03:17:41;96873.09;;;8.91;100.00
12178;BME280;6152;48.728;9.256;2023-11-19T03:20:10;96872.91;;;8.94;100.00
12178;BME280;6152;48.728;9.256;2023-11-19T03:22:39;96868.38;;;8.98;100.00
12178;BME280;6152;48.728;9.256;2023-11-19T03:25:08;96867.53;;;8.97;100.00
12178;BME280;6152;48.728;9.256;2023-11-19T03:27:38;96869.41;;;8.95;100.00
12178;BME280;6152;48.728;9.256;2023-11-19T03:30:10;96870.06;;;8.99;100.00
12178;BME280;6152;48.728;9.256;2023-11-19T03:32:37;96875.97;;;9.01;100.00
12178;BME280;6152;48.728;9.256;2023-11-19T03:35:05;96884.53;;;9.03;100.00
12178;BME280;6152;48.728;9.256;2023-11-19T03:37:33;96876.56;;;9.06;100.00
12178;BME280;6152;48.728;9.256;2023-11-19T03:39:59;96873.97;;;9.06;100.00
12178;BME280;6152;48.728;9.256;2023-11-19T03:42:29;96874.72;;;9.08;100.00
12178;BME280;6152;48.728;9.256;2023-11-19T03:44:58;96871.09;;;9.10;100.00
12178;BME280;6152;48.728;9.256;2023-11-19T03:47:24;96862.31;;;9.13;100.00
12178;BME280;6152;48.728;9.256;2023-11-19T03:49:51;96860.63;;;9.12;100.00
12178;BME280;6152;48.728;9.256;2023-11-19T03:52:18;96852.75;;;9.13;100.00
12178;BME280;6152;48.728;9.256;2023-11-19T03:54:45;96864.78;;;9.14;100.00
12178;BME280;6152;48.728;9.256;2023-11-19T03:57:15;96853.69;;;9.12;100.00
12178;BME280;6152;48.728;9.256;2023-11-19T03:59:44;96860.44;;;9.15;100.00
12178;BME280;6152;48.728;9.256;2023-11-19T04:02:10;96855.34;;;9.13;100.00
12178;BME280;6152;48.728;9.256;2023-11-19T04:04:36;96850.97;;;9.14;100.00
12178;BME280;6152;48.728;9.256;2023-11-19T04:07:05;96840.59;;;9.14;100.00
12178;BME280;6152;48.728;9.256;2023-11-19T04:09:31;96845.91;;;9.12;100.00
12178;BME280;6152;48.728;9.256;2023-11-19T04:12:03;96839.69;;;9.15;100.00
12178;BME280;6152;48.728;9.256;2023-11-19T04:14:30;96846.53;;;9.16;100.00
12178;BME280;6152;48.728;9.256;2023-11-19T04:16:56;96835.41;;;9.14;100.00
12178;BME280;6152;48.728;9.256;2023-11-19T04:19:22;96850.25;;;9.12;100.00
12178;BME280;6152;48.728;9.256;2023-11-19T04:21:48;96847.56;;;9.13;100.00
12178;BME280;6152;48.728;9.256;2023-11-19T04:24:14;96851.56;;;9.19;100.00
12178;BME280;6152;48.728;9.256;2023-11-19T04:26:45;96860.91;;;9.22;100.00
12178;BME280;6152;48.728;9.256;2023-11-19T04:29:16;96859.16;;;9.22;100.00
12178;BME280;6152;48.728;9.256;2023-11-19T04:31:45;96854.81;;;9.23;100.00
12178;BME280;6152;48.728;9.256;2023-11-19T04:34:12;96845.16;;;9.25;100.00
12178;BME280;6152;48.728;9.256;2023-11-19T04:36:38;96846.75;;;9.27;100.00
12178;BME280;6152;48.728;9.256;2023-11-19T04:39:05;96847.66;;;9.26;100.00
12178;BME280;6152;48.728;9.256;2023-11-19T04:41:51;96851.19;;;9.25;100.00
12178;BME280;6152;48.728;9.256;2023-11-19T04:44:20;96851.66;;;9.32;100.00
12178;BME280;6152;48.728;9.256;2023-11-19T04:46:46;96851.75;;;9.30;100.00
12178;BME280;6152;48.728;9.256;2023-11-19T04:49:13;96855.84;;;9.34;100.00
12178;BME280;6152;48.728;9.256;2023-11-19T04:51:41;96859.25;;;9.35;100.00
12178;BME280;6152;48.728;9.256;2023-11-19T04:54:08;96854.16;;;9.33;100.00
12178;BME280;6152;48.728;9.256;2023-11-19T04:56:35;96851.28;;;9.38;100.00
12178;BME280;6152;48.728;9.256;2023-11-19T04:59:05;96852.69;;;9.43;100.00
12178;BME280;6152;48.728;9.256;2023-11-19T05:01:32;96857.31;;;9.38;100.00
12178;BME280;6152;48.728;9.256;2023-11-19T05:03:58;96860.56;;;9.42;100.00
12178;BME280;6152;48.728;9.256;2023-11-19T05:06:27;96864.66;;;9.46;100.00
12178;BME280;6152;48.728;9.256;2023-11-19T05:08:54;96856.59;;;9.50;100.00
12178;BME280;6152;48.728;9.256;2023-11-19T05:11:20;96854.91;;;9.49;100.00
12178;BME280;6152;48.728;9.256;2023-11-19T05:13:46;96846.00;;;9.53;100.00
12178;BME280;6152;48.728;9.256;2023-11-19T05:16:12;96855.28;;;9.57;100.00
12178;BME280;6152;48.728;9.256;2023-11-19T05:18:41;96855.28;;;9.57;100.00
12178;BME280;6152;48.728;9.256;2023-11-19T05:21:08;96850.81;;;9.59;100.00
12178;BME280;6152;48.728;9.256;2023-11-19T05:23:34;96845.44;;;9.62;100.00
12178;BME280;6152;48.728;9.256;2023-11-19T05:26:03;96855.00;;;9.62;100.00
12178;BME280;6152;48.728;9.256;2023-11-19T05:28:30;96842.75;;;9.64;100.00
12178;BME280;6152;48.728;9.256;2023-11-19T05:30:56;96849.53;;;9.67;100.00
12178;BME280;6152;48.728;9.256;2023-11-19T05:33:22;96862.69;;;9.63;100.00
12178;BME280;6152;48.728;9.256;2023-11-19T05:35:49;96866.03;;;9.65;100.00
12178;BME280;6152;48.728;9.256;2023-11-19T05:38:15;96867.81;;;9.65;100.00
12178;BME280;6152;48.728;9.256;2023-11-19T05:40:41;96868.47;;;9.69;100.00
12178;BME280;6152;48.728;9.256;2023-11-19T05:43:08;96870.13;;;9.70;100.00
12178;BME280;6152;48.728;9.256;2023-11-19T05:45:34;96872.72;;;9.70;100.00
12178;BME280;6152;48.728;9.256;2023-11-19T05:48:00;96865.88;;;9.69;100.00
12178;BME280;6152;48.728;9.256;2023-11-19T05:50:26;96869.38;;;9.68;100.00
12178;BME280;6152;48.728;9.256;2023-11-19T05:52:52;96872.00;;;9.68;100.00
12178;BME280;6152;48.728;9.256;2023-11-19T05:55:19;96878.88;;;9.69;100.00
12178;BME280;6152;48.728;9.256;2023-11-19T05:57:45;96881.47;;;9.69;100.00
12178;BME280;6152;48.728;9.256;2023-11-19T06:00:12;96882.38;;;9.68;100.00
12178;BME280;6152;48.728;9.256;2023-11-19T06:02:39;96867.53;;;9.70;100.00
12178;BME280;6152;48.728;9.256;2023-11-19T06:05:06;96877.00;;;9.71;100.00
12178;BME280;6152;48.728;9.256;2023-11-19T06:07:35;96875.44;;;9.68;100.00
12178;BME280;6152;48.728;9.256;2023-11-19T06:10:02;96883.22;;;9.68;100.00
12178;BME280;6152;48.728;9.256;2023-11-19T06:12:30;96873.56;;;9.70;100.00
12178;BME280;6152;48.728;9.256;2023-11-19T06:14:59;96876.06;;;9.72;100.00
12178;BME280;6152;48.728;9.256;2023-11-19T06:17:26;96868.16;;;9.73;100.00
12178;BME280;6152;48.728;9.256;2023-11-19T06:19:52;96870.75;;;9.73;100.00
12178;BME280;6152;48.728;9.256;2023-11-19T06:22:18;96869.84;;;9.74;100.00
12178;BME280;6152;48.728;9.256;2023-11-19T06:24:44;96870.03;;;9.71;100.00
12178;BME280;6152;48.728;9.256;2023-11-19T06:27:10;96870.88;;;9.72;100.00
12178;BME280;6152;48.728;9.256;2023-11-19T06:29:36;96874.13;;;9.75;100.00
12178;BME280;6152;48.728;9.256;2023-11-19T06:32:02;96874.19;;;9.74;100.00
12178;BME280;6152;48.728;9.256;2023-11-19T06:34:29;96875.88;;;9.75;100.00
12178;BME280;6152;48.728;9.256;2023-11-19T06:36:55;96865.50;;;9.75;100.00
12178;BME280;6152;48.728;9.256;2023-11-19T06:39:21;96874.00;;;9.77;100.00
12178;BME280;6152;48.728;9.256;2023-11-19T06:41:47;96880.69;;;9.81;100.00
12178;BME280;6152;48.728;9.256;2023-11-19T06:44:13;96878.94;;;9.81;100.00
12178;BME280;6152;48.728;9.256;2023-11-19T06:46:40;96886.63;;;9.83;100.00
12178;BME280;6152;48.728;9.256;2023-11-19T06:49:06;96890.06;;;9.83;100.00
12178;BME280;6152;48.728;9.256;2023-11-19T06:51:34;96877.81;;;9.85;100.00
12178;BME280;6152;48.728;9.256;2023-11-19T06:54:00;96890.06;;;9.83;100.00
12178;BME280;6152;48.728;9.256;2023-11-19T06:56:26;96897.78;;;9.85;100.00
12178;BME280;6152;48.728;9.256;2023-11-19T06:58:53;96897.59;;;9.88;100.00
12178;BME280;6152;48.728;9.256;2023-11-19T07:01:19;96910.50;;;9.89;100.00
12178;BME280;6152;48.728;9.256;2023-11-19T07:03:46;96906.94;;;9.90;100.00
12178;BME280;6152;48.728;9.256;2023-11-19T07:06:13;96914.75;;;9.90;100.00
12178;BME280;6152;48.728;9.256;2023-11-19T07:08:43;96902.59;;;9.91;100.00
12178;BME280;6152;48.728;9.256;2023-11-19T07:11:13;96906.69;;;9.95;100.00
12178;BME280;6152;48.728;9.256;2023-11-19T07:13:43;96907.41;;;9.97;100.00
12178;BME280;6152;48.728;9.256;2023-11-19T07:16:09;96912.41;;;10.00;100.00
12178;BME280;6152;48.728;9.256;2023-11-19T07:18:38;96908.91;;;10.01;100.00
12178;BME280;6152;48.728;9.256;2023-11-19T07:21:05;96908.06;;;10.00;100.00
12178;BME280;6152;48.728;9.256;2023-11-19T07:23:31;96910.38;;;10.05;100.00
12178;BME280;6152;48.728;9.256;2023-11-19T07:25:59;96910.38;;;10.05;100.00
12178;BME280;6152;48.728;9.256;2023-11-19T07:28:25;96912.78;;;10.08;100.00
12178;BME280;6152;48.728;9.256;2023-11-19T07:30:51;96904.06;;;10.09;100.00
12178;BME280;6152;48.728;9.256;2023-11-19T07:33:17;96909.16;;;10.10;100.00
12178;BME280;6152;48.728;9.256;2023-11-19T07:35:43;96907.41;;;10.11;100.00
12178;BME280;6152;48.728;9.256;2023-11-19T07:38:10;96911.59;;;10.13;100.00
12178;BME280;6152;48.728;9.256;2023-11-19T07:40:36;96912.53;;;10.12;100.00
12178;BME280;6152;48.728;9.256;2023-11-19T07:43:02;96921.91;;;10.15;100.00
12178;BME280;6152;48.728;9.256;2023-11-19T07:45:28;96931.47;;;10.14;100.00
12178;BME280;6152;48.728;9.256;2023-11-19T07:47:54;96926.09;;;10.18;100.00
12178;BME280;6152;48.728;9.256;2023-11-19T07:50:20;96924.25;;;10.20;100.00
12178;BME280;6152;48.728;9.256;2023-11-19T07:52:46;96925.34;;;10.16;100.00
12178;BME280;6152;48.728;9.256;2023-11-19T07:55:13;96913.19;;;10.16;100.00
12178;BME280;6152;48.728;9.256;2023-11-19T07:57:39;96924.31;;;10.18;100.00
12178;BME280;6152;48.728;9.256;2023-11-19T08:00:05;96926.91;;;10.18;100.00
12178;BME280;6152;48.728;9.256;2023-11-19T08:02:32;96941.50;;;10.21;100.00
12178;BME280;6152;48.728;9.256;2023-11-19T08:04:58;96941.34;;;10.24;100.00
12178;BME280;6152;48.728;9.256;2023-11-19T08:07:24;96927.28;;;10.26;100.00
12178;BME280;6152;48.728;9.256;2023-11-19T08:09:51;96922.81;;;10.28;100.00
12178;BME280;6152;48.728;9.256;2023-11-19T08:12:17;96913.91;;;10.32;100.00
12178;BME280;6152;48.728;9.256;2023-11-19T08:14:43;96920.78;;;10.33;100.00
12178;BME280;6152;48.728;9.256;2023-11-19T08:17:10;96917.25;;;10.34;100.00
12178;BME280;6152;48.728;9.256;2023-11-19T08:19:36;96916.09;;;10.38;100.00
12178;BME280;6152;48.728;9.256;2023-11-19T08:22:02;96923.72;;;10.41;100.00
12178;BME280;6152;48.728;9.256;2023-11-19T08:24:28;96923.53;;;10.44;100.00
12178;BME280;6152;48.728;9.256;2023-11-19T08:26:54;96915.34;;;10.50;100.00
12178;BME280;6152;48.728;9.256;2023-11-19T08:29:21;96916.84;;;10.54;100.00
12178;BME280;6152;48.728;9.256;2023-11-19T08:31:47;96919.56;;;10.65;100.00
12178;BME280;6152;48.728;9.256;2023-11-19T08:34:13;96925.22;;;10.72;100.00
12178;BME280;6152;48.728;9.256;2023-11-19T08:36:39;96920.34;;;10.80;100.00
12178;BME280;6152;48.728;9.256;2023-11-19T08:39:05;96916.97;;;10.92;100.00
12178;BME280;6152;48.728;9.256;2023-11-19T08:41:31;96911.28;;;11.12;100.00
12178;BME280;6152;48.728;9.256;2023-11-19T08:43:57;96929.66;;;11.36;100.00
12178;BME280;6152;48.728;9.256;2023-11-19T08:46:23;96940.31;;;11.58;100.00
12178;BME280;6152;48.728;9.256;2023-11-19T08:48:51;96936.78;;;11.59;100.00
12178;BME280;6152;48.728;9.256;2023-11-19T08:51:17;96943.13;;;11.55;100.00
12178;BME280;6152;48.728;9.256;2023-11-19T08:53:43;96930.94;;;11.56;100.00
12178;BME280;6152;48.728;9.256;2023-11-19T08:56:09;96933.75;;;11.53;100.00
12178;BME280;6152;48.728;9.256;2023-11-19T08:58:35;96937.91;;;11.55;100.00
12178;BME280;6152;48.728;9.256;2023-11-19T09:01:01;96928.31;;;11.56;100.00
12178;BME280;6152;48.728;9.256;2023-11-19T09:03:28;96926.56;;;11.56;100.00
12178;BME280;6152;48.728;9.256;2023-11-19T09:05:56;96930.63;;;11.60;100.00
12178;BME280;6152;48.728;9.256;2023-11-19T09:08:23;96932.81;;;11.66;100.00
12178;BME280;6152;48.728;9.256;2023-11-19T09:10:49;96923.97;;;11.94;100.00
12178;BME280;6152;48.728;9.256;2023-11-19T09:13:15;96931.06;;;12.41;100.00
12178;BME280;6152;48.728;9.256;2023-11-19T09:15:41;96935.97;;;12.82;100.00
12178;BME280;6152;48.728;9.256;2023-11-19T09:18:08;96934.19;;;13.06;100.00
12178;BME280;6152;48.728;9.256;2023-11-19T09:20:34;96937.63;;;13.31;100.00
12178;BME280;6152;48.728;9.256;2023-11-19T09:23:04;96943.44;;;13.34;100.00
12178;BME280;6152;48.728;9.256;2023-11-19T09:25:31;96943.94;;;13.39;100.00
12178;BME280;6152;48.728;9.256;2023-11-19T09:27:57;96940.06;;;13.21;100.00
12178;BME280;6152;48.728;9.256;2023-11-19T09:30:23;96952.16;;;13.11;100.00
12178;BME280;6152;48.728;9.256;2023-11-19T09:32:49;96953.97;;;12.98;100.00
12178;BME280;6152;48.728;9.256;2023-11-19T09:35:15;96962.81;;;13.08;100.00
12178;BME280;6152;48.728;9.256;2023-11-19T09:37:43;96964.28;;;13.12;100.00
12178;BME280;6152;48.728;9.256;2023-11-19T09:40:09;96963.59;;;13.21;100.00
12178;BME280;6152;48.728;9.256;2023-11-19T09:42:45;96961.88;;;13.33;100.00
12178;BME280;6152;48.728;9.256;2023-11-19T09:45:16;96963.91;;;13.40;100.00
12178;BME280;6152;48.728;9.256;2023-11-19T09:47:45;96952.16;;;14.25;100.00
12178;BME280;6152;48.728;9.256;2023-11-19T09:50:19;96952.66;;;14.52;100.00
12178;BME280;6152;48.728;9.256;2023-11-19T09:52:46;96957.53;;;14.12;100.00
12178;BME280;6152;48.728;9.256;2023-11-19T09:55:13;96943.84;;;14.96;100.00
12178;BME280;6152;48.728;9.256;2023-11-19T09:57:40;96951.97;;;14.93;100.00
12178;BME280;6152;48.728;9.256;2023-11-19T10:00:08;96944.28;;;15.44;100.00
12178;BME280;6152;48.728;9.256;2023-11-19T10:02:37;96942.94;;;15.91;100.00
12178;BME280;6152;48.728;9.256;2023-11-19T10:05:06;96936.44;;;17.15;100.00
12178;BME280;6152;48.728;9.256;2023-11-19T10:07:33;96931.59;;;17.10;100.00
12178;BME280;6152;48.728;9.256;2023-11-19T10:10:01;96941.31;;;18.24;100.00
12178;BME280;6152;48.728;9.256;2023-11-19T10:12:28;96941.69;;;18.29;100.00
12178;BME280;6152;48.728;9.256;2023-11-19T10:14:57;96935.25;;;18.04;100.00
12178;BME280;6152;48.728;9.256;2023-11-19T10:17:28;96923.00;;;17.47;100.00
12178;BME280;6152;48.728;9.256;2023-11-19T10:19:55;96928.09;;;16.81;100.00
12178;BME280;6152;48.728;9.256;2023-11-19T10:22:23;96923.41;;;16.85;100.00
12178;BME280;6152;48.728;9.256;2023-11-19T10:24:50;96928.50;;;16.37;100.00
12178;BME280;6152;48.728;9.256;2023-11-19T10:27:16;96926.88;;;16.55;100.00
12178;BME280;6152;48.728;9.256;2023-11-19T10:29:45;96933.06;;;16.75;100.00
12178;BME280;6152;48.728;9.256;2023-11-19T10:32:13;96935.47;;;16.47;100.00
12178;BME280;6152;48.728;9.256;2023-11-19T10:34:40;96923.78;;;16.31;100.00
12178;BME280;6152;48.728;9.256;2023-11-19T10:37:07;96934.44;;;15.99;100.00
12178;BME280;6152;48.728;9.256;2023-11-19T10:39:52;96928.78;;;15.83;100.00
12178;BME280;6152;48.728;9.256;2023-11-19T10:42:20;96934.19;;;15.60;100.00
12178;BME280;6152;48.728;9.256;2023-11-19T10:44:47;96928.75;;;15.73;100.00
12178;BME280;6152;48.728;9.256;2023-11-19T10:47:14;96930.94;;;15.68;100.00
12178;BME280;6152;48.728;9.256;2023-11-19T10:49:43;96929.22;;;16.08;100.00
12178;BME280;6152;48.728;9.256;2023-11-19T10:52:09;96922.56;;;17.51;100.00
12178;BME280;6152;48.728;9.256;2023-11-19T10:54:36;96913.38;;;18.67;100.00
12178;BME280;6152;48.728;9.256;2023-11-19T10:57:03;96916.16;;;19.46;100.00
12178;BME280;6152;48.728;9.256;2023-11-19T10:59:32;96909.56;;;20.20;100.00
12178;BME280;6152;48.728;9.256;2023-11-19T11:02:02;96911.41;;;19.76;100.00
12178;BME280;6152;48.728;9.256;2023-11-19T11:04:33;96897.13;;;19.25;100.00
12178;BME280;6152;48.728;9.256;2023-11-19T11:07:02;96894.91;;;19.74;100.00
12178;BME280;6152;48.728;9.256;2023-11-19T11:09:30;96900.03;;;20.01;100.00
12178;BME280;6152;48.728;9.256;2023-11-19T11:11:56;96906.88;;;19.42;100.00
12178;BME280;6152;48.728;9.256;2023-11-19T11:14:25;96902.25;;;20.39;85.53
12178;BME280;6152;48.728;9.256;2023-11-19T11:16:51;96912.28;;;20.02;93.88
12178;BME280;6152;48.728;9.256;2023-11-19T11:19:19;96904.09;;;19.08;100.00
12178;BME280;6152;48.728;9.256;2023-11-19T11:21:50;96898.16;;;18.61;100.00
12178;BME280;6152;48.728;9.256;2023-11-19T11:24:30;96913.50;;;18.39;100.00
12178;BME280;6152;48.728;9.256;2023-11-19T11:32:22;96901.84;;;17.20;100.00
12178;BME280;6152;48.728;9.256;2023-11-19T11:37:47;96909.38;;;16.55;100.00
12178;BME280;6152;48.728;9.256;2023-11-19T11:40:16;96891.28;;;16.32;100.00
12178;BME280;6152;48.728;9.256;2023-11-19T11:42:44;96907.41;;;16.17;100.00
12178;BME280;6152;48.728;9.256;2023-11-19T11:45:12;96899.59;;;15.97;100.00
12178;BME280;6152;48.728;9.256;2023-11-19T11:50:20;96894.69;;;16.13;100.00
12178;BME280;6152;48.728;9.256;2023-11-19T11:57:51;96886.31;;;15.89;100.00
12178;BME280;6152;48.728;9.256;2023-11-19T12:00:33;96887.44;;;15.96;100.00
12178;BME280;6152;48.728;9.256;2023-11-19T12:03:05;96901.25;;;15.68;100.00
12178;BME280;6152;48.728;9.256;2023-11-19T12:05:31;96894.44;;;15.44;100.00
12178;BME280;6152;48.728;9.256;2023-11-19T12:08:05;96887.63;;;15.53;100.00
12178;BME280;6152;48.728;9.256;2023-11-19T12:10:50;96888.66;;;16.32;100.00
12178;BME280;6152;48.728;9.256;2023-11-19T12:13:18;96885.47;;;17.74;100.00
12178;BME280;6152;48.728;9.256;2023-11-19T12:18:27;96875.53;;;19.91;91.27
12178;BME280;6152;48.728;9.256;2023-11-19T12:20:53;96880.88;;;20.66;79.92
12178;BME280;6152;48.728;9.256;2023-11-19T12:23:20;96874.13;;;20.30;73.35
12178;BME280;6152;48.728;9.256;2023-11-19T12:25:46;96876.38;;;19.65;79.75
12178;BME280;6152;48.728;9.256;2023-11-19T12:28:13;96875.66;;;19.81;80.49
12178;BME280;6152;48.728;9.256;2023-11-19T12:30:40;96877.59;;;19.36;82.87
12178;BME280;6152;48.728;9.256;2023-11-19T12:33:10;96865.47;;;18.90;86.58
12178;BME280;6152;48.728;9.256;2023-11-19T12:35:54;96858.34;;;18.28;90.90
12178;BME280;6152;48.728;9.256;2023-11-19T12:38:25;96840.44;;;18.04;84.92
12178;BME280;6152;48.728;9.256;2023-11-19T12:41:23;96846.44;;;17.59;92.64
12178;BME280;6152;48.728;9.256;2023-11-19T12:43:49;96848.94;;;17.61;90.01
12178;BME280;6152;48.728;9.256;2023-11-19T12:46:20;96837.44;;;17.43;93.84
12178;BME280;6152;48.728;9.256;2023-11-19T12:48:51;96846.00;;;17.54;93.60
12178;BME280;6152;48.728;9.256;2023-11-19T12:51:17;96841.22;;;17.87;92.98
12178;BME280;6152;48.728;9.256;2023-11-19T12:53:50;96837.56;;;17.41;96.34
12178;BME280;6152;48.728;9.256;2023-11-19T12:56:20;96836.00;;;18.32;88.18
12178;BME280;6152;48.728;9.256;2023-11-19T12:58:47;96834.41;;;17.94;85.97
12178;BME280;6152;48.728;9.256;2023-11-19T13:01:17;96832.34;;;17.88;88.21
12178;BME280;6152;48.728;9.256;2023-11-19T13:03:44;96828.72;;;17.42;93.62
12178;BME280;6152;48.728;9.256;2023-11-19T13:06:12;96823.78;;;17.86;92.72
12178;BME280;6152;48.728;9.256;2023-11-19T13:08:39;96828.28;;;18.30;80.79
12178;BME280;6152;48.728;9.256;2023-11-19T13:11:06;96823.56;;;18.51;77.88
12178;BME280;6152;48.728;9.256;2023-11-19T13:13:32;96829.47;;;19.16;73.89
12178;BME280;6152;48.728;9.256;2023-11-19T13:16:05;96818.31;;;18.87;69.71
12178;BME280;6152;48.728;9.256;2023-11-19T13:18:32;96826.72;;;18.10;72.02
12178;BME280;6152;48.728;9.256;2023-11-19T13:20:58;96822.13;;;17.19;76.35
12178;BME280;6152;48.728;9.256;2023-11-19T13:23:24;96830.72;;;16.63;81.91
12178;BME280;6152;48.728;9.256;2023-11-19T13:25:50;96828.16;;;16.52;90.09
12178;BME280;6152;48.728;9.256;2023-11-19T13:28:16;96825.78;;;16.30;86.33